Time;durP1;ratioP1;P1;durP2;ratioP2;P2;SDS_P1;SDS_P2;PMS_P1;PMS_P2;Temp;Humidity;BMP_temperature;BMP_pressure;BME280_temperature;BME280_humidity;BME280_pressure;Samples;Min_cycle;Max_cycle;Signal;HPM_P1;HPM_P2
2022/09/19 00:02:02;;;;;;;6.15;4.30;;;;;;;7.99;100.00;97781.00;2170309;82;22021;-84
2022/09/19 00:05:10;;;;;;;5.17;4.03;;;;;;;8.03;100.00;97789.25;2154176;83;21041;-85
2022/09/19 00:08:06;;;;;;;6.17;4.80;;;;;;;8.06;100.00;97785.79;2145920;83;21065;-84
2022/09/19 00:11:06;;;;;;;5.92;5.33;;;;;;;8.11;100.00;97782.11;2120294;83;21065;-85
2022/09/19 00:14:07;;;;;;;7.25;4.20;;;;;;;8.17;100.00;97781.38;2161166;82;20988;-85
2022/09/19 00:17:08;;;;;;;9.25;4.30;;;;;;;8.18;100.00;97786.90;2131339;83;20996;-85
2022/09/19 00:20:08;;;;;;;7.05;4.83;;;;;;;8.22;100.00;97780.80;2168854;82;21512;-85
2022/09/19 00:26:28;;;;;;;5.33;3.42;;;;;;;8.37;100.00;97784.19;2183832;81;21600;-85
2022/09/19 00:29:29;;;;;;;5.30;4.37;;;;;;;8.36;100.00;97776.05;2146781;82;20921;-84
2022/09/19 00:32:31;;;;;;;5.03;3.90;;;;;;;8.40;100.00;97781.19;2170176;82;21063;-86
2022/09/19 00:35:32;;;;;;;5.60;3.60;;;;;;;8.47;100.00;97781.25;2176398;82;21120;-85
2022/09/19 00:38:33;;;;;;;4.15;3.75;;;;;;;8.49;100.00;97785.78;2160514;82;21472;-86
2022/09/19 00:41:36;;;;;;;5.87;4.28;;;;;;;8.46;100.00;97786.97;2133632;82;21045;-85
2022/09/19 00:44:37;;;;;;;5.37;3.98;;;;;;;8.48;100.00;97786.28;2179049;82;20986;-85
2022/09/19 00:47:38;;;;;;;6.45;4.25;;;;;;;8.48;100.00;97778.95;2163786;82;21037;-85
2022/09/19 00:50:39;;;;;;;6.37;3.77;;;;;;;8.47;100.00;97789.08;2179627;82;20977;-85
2022/09/19 00:53:40;;;;;;;4.67;4.05;;;;;;;8.46;100.00;97776.53;2159284;82;21047;-84
2022/09/19 00:56:40;;;;;;;4.08;3.55;;;;;;;8.52;100.00;97776.30;2182464;81;20997;-84
2022/09/19 00:59:41;;;;;;;4.05;3.75;;;;;;;8.55;100.00;97784.53;2160462;82;20934;-85
2022/09/19 01:02:42;;;;;;;9.25;3.87;;;;;;;8.53;100.00;97781.81;2170133;82;21029;-85
2022/09/19 01:05:44;;;;;;;3.77;3.15;;;;;;;8.56;100.00;97787.95;2139614;82;20970;-83
2022/09/19 01:08:45;;;;;;;4.28;3.08;;;;;;;8.53;100.00;97781.81;2160276;82;21104;-85
2022/09/19 01:11:46;;;;;;;5.83;3.65;;;;;;;8.57;100.00;97788.75;2120994;84;21539;-85
2022/09/19 01:14:47;;;;;;;4.10;3.00;;;;;;;8.58;100.00;97794.28;2154000;82;20965;-85
2022/09/19 01:17:48;;;;;;;3.47;3.02;;;;;;;8.60;100.00;97785.29;2150049;82;20972;-84
2022/09/19 01:20:50;;;;;;;3.30;3.00;;;;;;;8.58;100.00;97789.87;2091964;85;20973;-85
2022/09/19 01:23:52;;;;;;;4.30;2.75;;;;;;;8.54;100.00;97785.53;2093626;85;20957;-86
2022/09/19 01:26:53;;;;;;;3.17;2.90;;;;;;;8.57;100.00;97790.06;2091805;85;20995;-85
2022/09/19 01:29:54;;;;;;;3.02;2.77;;;;;;;8.54;100.00;97777.70;2091805;85;21580;-86
2022/09/19 01:32:55;;;;;;;2.62;2.42;;;;;;;8.54;100.00;97783.42;2123980;84;20926;-85
2022/09/19 01:35:59;;;;;;;3.10;2.12;;;;;;;8.51;100.00;97779.40;2124716;83;21009;-85
2022/09/19 01:38:58;;;;;;;2.95;2.40;;;;;;;8.49;100.00;97779.25;2157462;82;21095;-85
2022/09/19 01:41:59;;;;;;;4.25;2.50;;;;;;;8.46;100.00;97783.56;2147105;82;21000;-85
2022/09/19 01:45:00;;;;;;;2.45;2.17;;;;;;;8.44;100.00;97781.14;2138244;82;21576;-85
2022/09/19 01:48:00;;;;;;;1.92;1.80;;;;;;;8.44;100.00;97786.36;2148059;82;20968;-86
2022/09/19 01:51:01;;;;;;;1.80;1.70;;;;;;;8.46;100.00;97780.95;2091952;85;21004;-84
2022/09/19 01:54:02;;;;;;;3.22;2.20;;;;;;;8.48;100.00;97778.95;2152657;82;20988;-85
2022/09/19 01:57:03;;;;;;;2.00;1.90;;;;;;;8.46;100.00;97783.06;2147466;82;20993;-86
2022/09/19 02:00:03;;;;;;;2.12;1.80;;;;;;;8.46;100.00;97780.95;2148681;82;21059;-86
2022/09/19 02:03:04;;;;;;;2.05;1.85;;;;;;;8.48;100.00;97780.25;2092234;85;21019;-86
2022/09/19 02:06:06;;;;;;;1.70;1.60;;;;;;;8.48;100.00;97786.78;2108177;84;21048;-87
2022/09/19 02:09:06;;;;;;;2.65;1.40;;;;;;;8.46;100.00;97783.56;2144876;81;21552;-84
2022/09/19 02:12:07;;;;;;;2.83;2.20;;;;;;;8.50;100.00;97786.09;2127223;83;20962;-86
2022/09/19 02:15:09;;;;;;;2.25;1.80;;;;;;;8.53;100.00;97791.75;2140331;83;21001;-86
2022/09/19 02:18:09;;;;;;;1.98;1.80;;;;;;;8.57;100.00;97790.06;2199292;81;21047;-87
2022/09/19 02:21:11;;;;;;;1.40;1.40;;;;;;;8.59;100.00;97794.08;2199470;81;20960;-86
2022/09/19 02:24:13;;;;;;;1.77;1.65;;;;;;;8.58;100.00;97788.56;2190288;81;20956;-85
2022/09/19 02:27:17;;;;;;;2.75;1.90;;;;;;;8.58;100.00;97789.87;2127864;82;21061;-85
2022/09/19 02:30:19;;;;;;;1.62;1.52;;;;;;;8.60;100.00;97789.70;2140086;83;21045;-85
2022/09/19 02:33:19;;;;;;;3.27;1.55;;;;;;;8.58;100.00;97791.17;2154296;83;20977;-86
2022/09/19 02:36:20;;;;;;;2.35;1.35;;;;;;;8.57;100.00;97800.00;2169052;82;21013;-85
2022/09/19 02:39:20;;;;;;;2.15;1.85;;;;;;;8.56;100.00;97795.78;2143382;83;20938;-86
2022/09/19 02:42:22;;;;;;;2.15;1.95;;;;;;;8.59;100.00;97801.91;2143112;83;20998;-85
2022/09/19 02:45:25;;;;;;;1.40;1.37;;;;;;;8.54;100.00;97802.99;2151730;82;21052;-85
2022/09/19 02:48:25;;;;;;;1.50;1.40;;;;;;;8.48;100.00;97795.91;2125736;83;21076;-85
2022/09/19 02:51:26;;;;;;;1.87;1.25;;;;;;;8.44;100.00;97797.30;2191138;80;21465;-87
2022/09/19 02:54:27;;;;;;;3.33;1.55;;;;;;;8.42;100.00;97803.20;2137679;83;21022;-85
2022/09/19 02:57:29;;;;;;;1.82;1.72;;;;;;;8.43;100.00;97798.30;2168931;82;21484;-86
2022/09/19 03:00:30;;;;;;;1.30;1.20;;;;;;;8.45;100.00;97800.20;2180051;82;21081;-85
2022/09/19 03:06:50;;;;;;;4.60;1.40;;;;;;;8.44;100.00;97801.20;2167305;82;21100;-87
2022/09/19 03:09:51;;;;;;;1.35;1.25;;;;;;;8.40;100.00;97800.75;2158370;81;21089;-87
2022/09/19 03:12:51;;;;;;;1.90;1.80;;;;;;;8.38;100.00;97804.55;2187637;81;20992;-85
2022/09/19 03:15:52;;;;;;;2.10;1.90;;;;;;;8.38;100.00;97805.36;2131324;83;21036;-83
2022/09/19 03:18:55;;;;;;;1.92;1.82;;;;;;;8.38;100.00;97812.38;2163460;82;21008;-83
2022/09/19 03:21:55;;;;;;;2.60;1.90;;;;;;;8.42;100.00;97818.86;2160594;82;20994;-84
2022/09/19 03:25:01;;;;;;;2.30;2.20;;;;;;;8.46;100.00;97818.78;2158390;82;21075;-84
2022/09/19 03:27:58;;;;;;;2.50;2.30;;;;;;;8.46;100.00;97819.58;2157531;82;21131;-84
2022/09/19 03:31:00;;;;;;;2.58;2.37;;;;;;;8.43;100.00;97823.88;2158058;82;21552;-83
2022/09/19 03:34:02;;;;;;;2.22;2.12;;;;;;;8.45;100.00;97821.08;2158186;82;22165;-84
2022/09/19 03:37:03;;;;;;;2.65;2.33;;;;;;;8.46;100.00;97819.58;2158200;82;21036;-84
2022/09/19 03:40:04;;;;;;;4.55;3.05;;;;;;;8.47;100.00;97829.02;2158238;82;21063;-83
2022/09/19 03:43:06;;;;;;;6.40;3.87;;;;;;;8.47;100.00;97823.80;2158218;82;20977;-83
2022/09/19 03:46:06;;;;;;;3.27;3.00;;;;;;;8.44;100.00;97822.88;2158175;82;21085;-83
2022/09/19 03:49:07;;;;;;;5.92;3.95;;;;;;;8.42;100.00;97827.48;2158232;82;20985;-84
2022/09/19 03:52:08;;;;;;;3.90;3.33;;;;;;;8.45;100.00;97831.52;2158341;82;21099;-84
2022/09/19 03:55:09;;;;;;;4.83;3.15;;;;;;;8.44;100.00;97823.38;2158231;82;20993;-84
2022/09/19 03:58:12;;;;;;;3.22;3.00;;;;;;;8.41;100.00;97822.43;2158397;82;21012;-86
2022/09/19 04:01:14;;;;;;;4.45;3.67;;;;;;;8.40;100.00;97826.84;2159113;82;21492;-85
2022/09/19 04:04:15;;;;;;;4.58;3.72;;;;;;;8.41;100.00;97834.17;2158038;82;21089;-85
2022/09/19 04:07:16;;;;;;;3.60;3.25;;;;;;;8.37;100.00;97833.75;2158202;82;21472;-85
2022/09/19 04:10:17;;;;;;;3.55;3.25;;;;;;;8.33;100.00;97832.98;2157811;82;20982;-85
2022/09/19 04:13:20;;;;;;;4.08;3.67;;;;;;;8.29;100.00;97828.62;2158023;82;21080;-85
2022/09/19 04:16:20;;;;;;;5.12;3.65;;;;;;;8.27;100.00;97832.72;2158142;82;21023;-84
2022/09/19 04:19:26;;;;;;;3.87;3.45;;;;;;;8.27;100.00;97828.81;2158059;82;20982;-84
2022/09/19 04:22:24;;;;;;;7.37;4.20;;;;;;;8.27;100.00;97830.11;2157660;82;21072;-84
2022/09/19 04:25:24;;;;;;;4.72;4.05;;;;;;;8.31;100.00;97830.54;2158102;82;21464;-84
2022/09/19 04:28:25;;;;;;;4.50;3.70;;;;;;;8.39;100.00;97829.64;2158339;82;21599;-84
2022/09/19 04:31:26;;;;;;;3.87;3.58;;;;;;;8.39;100.00;97833.55;2158270;82;21024;-83
2022/09/19 04:34:28;;;;;;;4.30;3.90;;;;;;;8.42;100.00;97828.79;2158261;82;21081;-83
2022/09/19 04:37:29;;;;;;;5.00;3.60;;;;;;;8.45;100.00;97836.23;2158320;82;20957;-82
2022/09/19 04:40:30;;;;;;;3.90;3.15;;;;;;;8.50;100.00;97836.96;2158330;82;21020;-84
2022/09/19 04:43:31;;;;;;;3.50;3.20;;;;;;;8.51;100.00;97839.91;2158176;82;20938;-85
2022/09/19 04:46:32;;;;;;;4.17;3.58;;;;;;;8.56;100.00;97846.66;2158240;82;21140;-85
2022/09/19 04:49:39;;;;;;;10.28;9.35;;;;;;;8.59;100.00;97856.71;2158133;82;20981;-85
2022/09/19 04:52:39;;;;;;;5.72;3.65;;;;;;;8.61;100.00;97855.24;2158349;82;21075;-85
2022/09/19 04:55:40;;;;;;;4.03;3.67;;;;;;;8.64;100.00;97861.38;2159131;82;21063;-86
2022/09/19 04:58:41;;;;;;;4.03;3.62;;;;;;;8.64;100.00;97862.19;2159900;82;21029;-84
2022/09/19 05:01:44;;;;;;;3.92;3.52;;;;;;;8.64;100.00;97871.32;2158111;82;21076;-86
2022/09/19 05:04:45;;;;;;;3.80;3.50;;;;;;;8.65;100.00;97871.62;2158096;82;21117;-86
2022/09/19 05:07:46;;;;;;;5.10;3.40;;;;;;;8.70;100.00;97874.50;2158234;82;21085;-86
2022/09/19 05:10:47;;;;;;;4.28;3.70;;;;;;;8.75;100.00;97877.33;2159246;82;21045;-87
2022/09/19 05:13:49;;;;;;;3.37;3.17;;;;;;;8.79;100.00;97877.28;2160246;82;20989;-85
2022/09/19 05:16:50;;;;;;;3.87;3.30;;;;;;;8.84;100.00;97879.31;2159500;82;21115;-86
2022/09/19 05:19:51;;;;;;;4.80;3.50;;;;;;;8.90;100.00;97885.09;2159003;82;21069;-86
2022/09/19 05:22:51;;;;;;;3.37;3.02;;;;;;;8.96;100.00;97888.27;2159251;82;21570;-85
2022/09/19 05:25:53;;;;;;;3.92;3.60;;;;;;;9.00;100.00;97884.77;2159110;82;21539;-86
2022/09/19 05:28:54;;;;;;;4.62;3.87;;;;;;;9.06;100.00;97893.16;2159503;82;21532;-86
2022/09/19 05:32:00;;;;;;;3.27;3.08;;;;;;;9.09;100.00;97892.27;2159521;82;21070;-85
2022/09/19 05:35:00;;;;;;;3.52;3.22;;;;;;;9.17;100.00;97889.22;2158862;82;21016;-85
2022/09/19 05:38:00;;;;;;;4.17;3.12;;;;;;;9.22;100.00;97899.89;2159284;82;21036;-85
2022/09/19 05:41:01;;;;;;;3.27;2.98;;;;;;;9.25;100.00;97906.86;2159458;82;21497;-84
2022/09/19 05:44:01;;;;;;;6.20;4.10;;;;;;;9.29;100.00;97908.58;2159285;82;21049;-84
2022/09/19 05:47:02;;;;;;;5.05;3.45;;;;;;;9.33;100.00;97913.75;2159253;82;21024;-85
2022/09/19 05:50:03;;;;;;;3.72;3.30;;;;;;;9.38;100.00;97917.39;2159554;82;21465;-85
2022/09/19 05:56:23;;;;;;;3.37;2.83;;;;;;;9.63;100.00;97916.95;2159400;82;21059;-85
2022/09/19 05:59:24;;;;;;;4.72;3.90;;;;;;;9.64;100.00;97915.44;2159580;82;21048;-85
2022/09/19 06:02:24;;;;;;;5.92;3.42;;;;;;;9.66;100.00;97921.78;2159210;82;21125;-86
2022/09/19 06:05:25;;;;;;;5.33;3.33;;;;;;;9.70;100.00;97925.64;2159008;82;21024;-85
2022/09/19 06:08:26;;;;;;;7.20;3.00;;;;;;;9.84;100.00;97931.23;2159368;82;21080;-86
2022/09/19 06:11:27;;;;;;;3.17;2.67;;;;;;;9.98;100.00;97930.80;2159326;82;21001;-85
2022/09/19 06:14:28;;;;;;;4.47;3.20;;;;;;;10.01;100.00;97929.09;2159347;82;21032;-86
2022/09/19 06:17:29;;;;;;;3.17;2.77;;;;;;;9.96;100.00;97933.59;2159225;82;20989;-86
2022/09/19 06:20:29;;;;;;;3.45;2.87;;;;;;;9.87;100.00;97932.64;2159252;82;21560;-83
2022/09/19 06:23:30;;;;;;;3.75;3.17;;;;;;;9.84;100.00;97943.50;2159383;82;21043;-85
2022/09/19 06:26:31;;;;;;;4.55;3.27;;;;;;;9.90;100.00;97951.38;2159374;82;21129;-83
2022/09/19 06:29:32;;;;;;;3.00;2.80;;;;;;;9.92;100.00;97947.27;2159422;82;21523;-84
2022/09/19 06:32:34;;;;;;;4.22;2.87;;;;;;;9.93;100.00;97958.83;2159326;82;21005;-84
2022/09/19 06:35:35;;;;;;;4.92;2.40;;;;;;;9.96;100.00;97955.02;2159789;82;21542;-84
2022/09/19 06:38:36;;;;;;;4.25;2.60;;;;;;;9.96;100.00;97955.02;2159366;82;21044;-84
2022/09/19 06:41:38;;;;;;;2.85;2.35;;;;;;;10.00;100.00;97956.25;2159227;82;20993;-84
2022/09/19 06:44:39;;;;;;;2.50;2.17;;;;;;;10.21;100.00;97964.49;2159231;82;21021;-84
2022/09/19 06:47:40;;;;;;;3.05;2.22;;;;;;;10.21;100.00;97964.49;2159319;82;21528;-84
2022/09/19 06:50:40;;;;;;;5.75;2.90;;;;;;;10.28;100.00;97963.25;2159191;82;20988;-85
2022/09/19 06:53:41;;;;;;;5.42;2.85;;;;;;;10.29;100.00;97968.78;2159116;82;21563;-84
2022/09/19 06:56:42;;;;;;;4.47;2.92;;;;;;;10.31;100.00;97971.50;2159395;82;21515;-84
2022/09/19 06:59:43;;;;;;;3.47;2.60;;;;;;;10.41;100.00;97977.17;2160038;82;21001;-84
2022/09/19 07:02:43;;;;;;;2.90;2.72;;;;;;;10.37;100.00;97978.58;2162129;82;20992;-85
2022/09/19 07:05:45;;;;;;;4.45;2.90;;;;;;;10.39;100.00;97981.80;2159203;82;21055;-84
2022/09/19 07:08:46;;;;;;;5.72;2.70;;;;;;;10.40;100.00;97982.11;2159294;82;21073;-87
2022/09/19 07:11:47;;;;;;;3.67;2.90;;;;;;;10.33;100.00;97989.12;2159176;82;21021;-88
2022/09/19 07:14:48;;;;;;;3.83;3.50;;;;;;;10.35;100.00;97988.95;2160384;82;21009;-85
2022/09/19 07:17:48;;;;;;;4.95;2.70;;;;;;;10.35;100.00;97994.18;2161922;82;21064;-85
2022/09/19 07:20:49;;;;;;;2.67;2.58;;;;;;;10.31;100.00;97995.05;2158898;82;20989;-88
2022/09/19 07:23:50;;;;;;;4.33;3.17;;;;;;;10.29;100.00;97998.88;2159192;82;21020;-86
2022/09/19 07:26:51;;;;;;;3.40;3.12;;;;;;;10.26;100.00;98001.39;2159332;82;20985;-87
2022/09/19 07:29:51;;;;;;;6.15;3.42;;;;;;;10.25;100.00;98011.05;2159965;82;21044;-87
2022/09/19 07:32:52;;;;;;;4.55;3.45;;;;;;;10.18;100.00;98011.48;2159072;82;21036;-87
2022/09/19 07:35:53;;;;;;;9.00;3.87;;;;;;;10.21;100.00;98016.81;2159140;82;21579;-87
2022/09/19 07:38:54;;;;;;;3.72;3.20;;;;;;;10.37;100.00;98020.95;2159308;82;21037;-87
2022/09/19 07:41:55;;;;;;;3.12;2.80;;;;;;;10.60;100.00;98012.77;2159086;82;21001;-91
2022/09/19 07:44:55;;;;;;;4.67;2.67;;;;;;;10.73;100.00;98021.49;2158808;82;21060;-91
2022/09/19 07:47:56;;;;;;;2.95;2.33;;;;;;;10.96;100.00;98019.82;2159226;82;21004;-88
2022/09/19 07:50:57;;;;;;;2.67;2.47;;;;;;;11.12;100.00;98025.20;2159394;82;21029;-86
2022/09/19 07:53:58;;;;;;;4.08;2.47;;;;;;;11.18;100.00;98030.16;2159286;82;21487;-88
2022/09/19 07:56:59;;;;;;;4.17;2.37;;;;;;;11.19;100.00;98023.91;2159340;82;20993;-87
2022/09/19 08:00:00;;;;;;;2.65;2.55;;;;;;;11.14;100.00;98031.04;2159489;82;21104;-90
2022/09/19 08:03:01;;;;;;;3.70;2.02;;;;;;;11.12;100.00;98033.06;2159158;82;21001;-86
2022/09/19 08:06:02;;;;;;;6.62;2.20;;;;;;;11.13;100.00;98031.24;2159354;82;21008;-87
2022/09/19 08:09:03;;;;;;;2.12;1.87;;;;;;;11.06;100.00;98038.61;2159416;82;21477;-89
2022/09/19 08:12:04;;;;;;;3.72;2.17;;;;;;;10.97;100.00;98045.03;2158546;82;21100;-86
2022/09/19 08:15:05;;;;;;;2.95;2.30;;;;;;;10.81;100.00;98037.03;2158111;82;20979;-85
2022/09/19 08:18:05;;;;;;;2.62;2.42;;;;;;;10.72;100.00;98038.21;2158294;82;22045;-84
2022/09/19 08:21:06;;;;;;;5.28;2.35;;;;;;;10.76;100.00;98038.61;2158306;82;21611;-85
2022/09/19 08:24:07;;;;;;;6.87;2.67;;;;;;;10.84;100.00;98046.30;2128894;82;21053;-85
2022/09/19 08:27:08;;;;;;;6.60;2.05;;;;;;;11.03;100.00;98045.53;2158293;82;21035;-87
2022/09/19 08:30:09;;;;;;;1.90;1.80;;;;;;;11.20;100.00;98039.42;2158332;82;20977;-88
2022/09/19 08:33:10;;;;;;;1.98;1.87;;;;;;;11.45;100.00;98033.61;2158364;82;21548;-82
2022/09/19 08:36:12;;;;;;;1.60;1.52;;;;;;;11.81;100.00;98035.34;2158174;82;21025;-84
2022/09/19 08:39:13;;;;;;;1.90;1.62;;;;;;;12.14;100.00;98030.02;2158305;82;21028;-82
2022/09/19 08:42:14;;;;;;;2.35;1.57;;;;;;;12.52;100.00;98041.10;2158302;82;21068;-86
2022/09/19 08:45:14;;;;;;;1.80;1.70;;;;;;;12.72;100.00;98037.91;2158330;82;21069;-85
2022/09/19 08:48:15;;;;;;;3.42;1.67;;;;;;;12.84;100.00;98039.36;2158400;82;21536;-86
2022/09/19 08:51:16;;;;;;;1.75;1.60;;;;;;;12.88;100.00;98038.41;2158327;82;21032;-85
2022/09/19 08:54:17;;;;;;;9.53;2.67;;;;;;;12.99;100.00;98042.52;2158364;82;20938;-85
2022/09/19 08:57:17;;;;;;;2.80;2.15;;;;;;;13.17;100.00;98047.57;2158495;82;21499;-85
2022/09/19 09:00:18;;;;;;;3.37;1.80;;;;;;;13.23;100.00;98048.05;2158721;82;20992;-84
2022/09/19 09:03:19;;;;;;;3.90;1.90;;;;;;;13.22;100.00;98051.70;2159811;82;20958;-84
2022/09/19 09:06:21;;;;;;;3.20;2.22;;;;;;;13.09;100.00;98046.80;2160050;82;21089;-85
2022/09/19 09:09:22;;;;;;;3.27;2.22;;;;;;;13.10;100.00;98058.92;2158801;82;21543;-85
2022/09/19 09:12:22;;;;;;;2.70;2.22;;;;;;;12.99;100.00;98054.85;2159431;82;21547;-85
2022/09/19 09:15:23;;;;;;;4.20;1.77;;;;;;;12.90;100.00;98058.23;2159344;82;21016;-85
2022/09/19 09:18:26;;;;;;;1.62;1.37;;;;;;;12.90;100.00;98061.37;2161022;82;20954;-87
2022/09/19 09:21:27;;;;;;;2.10;1.30;;;;;;;12.82;100.00;98061.09;2159672;82;21109;-87
2022/09/19 09:24:28;;;;;;;3.50;1.45;;;;;;;12.87;100.00;98064.39;2159141;82;21088;-88
2022/09/19 09:27:29;;;;;;;2.45;1.62;;;;;;;12.85;100.00;98058.05;2159277;82;20961;-88
2022/09/19 09:30:30;;;;;;;1.65;1.45;;;;;;;12.87;100.00;98059.14;2159266;82;21004;-88
2022/09/19 09:33:30;;;;;;;1.82;1.72;;;;;;;12.90;100.00;98059.55;2159083;82;21013;-88
2022/09/19 09:36:31;;;;;;;1.98;1.42;;;;;;;12.92;100.00;98068.02;2159222;82;21809;-87
2022/09/19 09:39:39;;;;;;;2.05;1.92;;;;;;;12.74;100.00;98060.83;2159081;82;21013;-89
2022/09/19 09:42:37;;;;;;;2.27;1.60;;;;;;;12.73;100.00;98063.16;2158058;82;21086;-87
2022/09/19 09:45:38;;;;;;;2.80;1.95;;;;;;;12.84;100.00;98058.25;2159085;82;21081;-87
2022/09/19 09:48:39;;;;;;;3.52;2.22;;;;;;;13.09;100.00;98057.83;2159120;82;21057;-87
2022/09/19 09:51:41;;;;;;;2.87;2.67;;;;;;;13.33;100.00;98062.33;2159065;82;21024;-86
2022/09/19 09:58:00;;;;;;;3.20;2.75;;;;;;;13.75;100.00;98065.78;2159227;82;21072;-85
2022/09/19 10:04:20;;;;;;;2.35;1.12;;;;;;;13.49;100.00;98079.42;2161055;82;21094;-88
2022/09/19 10:07:21;;;;;;;3.22;1.57;;;;;;;13.12;100.00;98084.19;2161121;82;21048;-88
2022/09/19 10:10:22;;;;;;;0.80;0.80;;;;;;;12.84;100.00;98084.52;2160670;82;21101;-87
2022/09/19 10:13:25;;;;;;;0.62;0.50;;;;;;;12.68;100.00;98081.86;2159429;82;20962;-86
2022/09/19 10:16:25;;;;;;;0.70;0.62;;;;;;;12.58;100.00;98085.43;2159349;82;21105;-88
2022/09/19 10:19:27;;;;;;;0.53;0.53;;;;;;;12.59;100.00;98082.59;2159252;82;21025;-88
2022/09/19 10:22:27;;;;;;;0.85;0.80;;;;;;;12.68;100.00;98076.60;2159131;82;21085;-89
2022/09/19 10:25:29;;;;;;;1.50;0.60;;;;;;;12.86;100.00;98078.55;2159082;82;21063;-89
2022/09/19 10:28:30;;;;;;;1.70;1.20;;;;;;;12.95;100.00;98087.80;2159296;82;21076;-89
2022/09/19 10:31:34;;;;;;;1.57;1.45;;;;;;;12.86;100.00;98084.61;2160761;82;20942;-88
2022/09/19 10:34:35;;;;;;;0.90;0.88;;;;;;;12.90;100.00;98088.45;2160177;82;21064;-90
2022/09/19 10:37:35;;;;;;;7.67;5.15;;;;;;;12.96;100.00;98087.59;2159964;82;21052;-88
2022/09/19 10:40:36;;;;;;;5.75;4.40;;;;;;;13.08;100.00;98097.76;2159793;82;21028;-88
2022/09/19 10:43:37;;;;;;;5.47;4.97;;;;;;;13.19;100.00;98096.31;2159800;82;20977;-89
2022/09/19 10:46:38;;;;;;;3.85;3.20;;;;;;;13.34;100.00;98098.63;2159399;82;21552;-88
2022/09/19 10:49:38;;;;;;;1.90;1.80;;;;;;;13.56;100.00;98100.42;2159373;82;21005;-85
2022/09/19 10:52:40;;;;;;;1.47;1.40;;;;;;;13.76;100.00;98097.64;2159661;82;20984;-87
2022/09/19 10:55:41;;;;;;;1.40;1.30;;;;;;;13.88;100.00;98097.23;2159424;82;21545;-85
2022/09/19 10:58:43;;;;;;;1.67;1.40;;;;;;;14.01;100.00;98098.96;2159697;82;21032;-90
2022/09/19 11:01:45;;;;;;;1.40;1.32;;;;;;;14.03;100.00;98095.59;2160050;82;21100;-91
2022/09/19 11:04:46;;;;;;;1.37;1.27;;;;;;;13.90;100.00;98088.63;2159419;82;21143;-89
2022/09/19 11:07:48;;;;;;;2.12;1.40;;;;;;;13.60;100.00;98098.45;2161152;82;21441;-85
2022/09/19 11:10:49;;;;;;;2.17;1.60;;;;;;;13.34;100.00;98094.17;2160024;82;21037;-85
2022/09/19 11:13:50;;;;;;;1.55;1.45;;;;;;;13.19;100.00;98088.91;2159471;82;20997;-85
2022/09/19 11:16:51;;;;;;;1.40;1.30;;;;;;;13.07;100.00;98094.00;2159353;82;21041;-87
2022/09/19 11:19:52;;;;;;;2.85;1.50;;;;;;;12.97;100.00;98090.52;2159409;82;21020;-85
2022/09/19 11:22:53;;;;;;;1.72;1.52;;;;;;;12.94;100.00;98088.31;2161610;82;20988;-85
2022/09/19 11:25:58;;;;;;;1.70;1.60;;;;;;;12.98;100.00;98097.38;2160147;82;21088;-86
2022/09/19 11:28:57;;;;;;;2.00;1.77;;;;;;;13.08;100.00;98099.58;2158641;82;20993;-85
2022/09/19 11:32:03;;;;;;;1.82;1.70;;;;;;;13.18;100.00;98095.98;2159838;82;21087;-87
2022/09/19 11:35:00;;;;;;;1.42;1.40;;;;;;;13.19;100.00;98097.63;2158452;82;21548;-87
2022/09/19 11:38:02;;;;;;;2.40;1.57;;;;;;;13.14;100.00;98103.98;2159197;82;21347;-86
2022/09/19 11:41:04;;;;;;;2.25;1.40;;;;;;;13.12;100.00;98099.45;2159028;82;21159;-84
2022/09/19 11:44:05;;;;;;;0.90;0.90;;;;;;;13.03;100.00;98098.08;2159188;82;21037;-85
2022/09/19 11:47:06;;;;;;;2.15;1.42;;;;;;;12.80;100.00;98107.77;2160548;82;21020;-84
2022/09/19 11:50:08;;;;;;;2.15;1.05;;;;;;;12.65;100.00;98107.23;2159198;82;21500;-85
2022/09/19 11:53:09;;;;;;;3.05;1.35;;;;;;;12.61;100.00;98102.08;2159118;82;21401;-85
2022/09/19 11:56:09;;;;;;;2.15;1.25;;;;;;;12.56;100.00;98097.97;2159166;82;21035;-86
2022/09/19 11:59:10;;;;;;;5.00;2.33;;;;;;;12.50;100.00;98108.78;2158947;82;21009;-86
2022/09/19 12:02:11;;;;;;;7.40;3.37;;;;;;;12.48;100.00;98101.11;2159030;82;20973;-85
2022/09/19 12:05:15;;;;;;;3.25;1.50;;;;;;;12.45;100.00;98106.78;2159118;82;21575;-86
2022/09/19 12:08:14;;;;;;;1.80;1.27;;;;;;;12.41;100.00;98099.52;2158849;82;21496;-86
2022/09/19 12:11:15;;;;;;;1.07;0.95;;;;;;;12.40;100.00;98109.72;2158640;82;21060;-85
2022/09/19 12:14:18;;;;;;;2.15;0.70;;;;;;;12.46;100.00;98111.02;2158261;82;21040;-86
2022/09/19 12:17:18;;;;;;;2.45;0.70;;;;;;;12.51;100.00;98111.19;2158269;82;21085;-86
2022/09/19 12:20:21;;;;;;;2.45;1.27;;;;;;;12.63;100.00;98104.02;2158100;82;21021;-86
2022/09/19 12:26:41;;;;;;;1.95;0.93;;;;;;;13.04;100.00;98103.12;2158224;82;21071;-84
2022/09/19 12:29:41;;;;;;;2.98;1.25;;;;;;;13.21;100.00;98111.36;2158284;82;21088;-86
2022/09/19 12:32:42;;;;;;;0.85;0.80;;;;;;;13.34;100.00;98112.58;2158096;82;21012;-84
2022/09/19 12:35:43;;;;;;;0.50;0.50;;;;;;;13.43;100.00;98107.88;2158077;82;20973;-85
2022/09/19 12:38:44;;;;;;;0.70;0.70;;;;;;;13.41;100.00;98112.55;2158264;82;21573;-85
2022/09/19 12:41:46;;;;;;;0.90;0.70;;;;;;;13.38;100.00;98101.16;2158182;82;21053;-85
2022/09/19 12:44:47;;;;;;;3.52;1.00;;;;;;;13.37;100.00;98111.37;2158073;82;21551;-87
2022/09/19 12:47:49;;;;;;;0.90;0.90;;;;;;;13.44;100.00;98112.14;2158135;82;21318;-86
2022/09/19 12:50:50;;;;;;;1.82;1.62;;;;;;;13.46;100.00;98106.16;2158236;82;21552;-85
2022/09/19 12:53:51;;;;;;;1.67;1.30;;;;;;;13.47;100.00;98109.08;2158199;82;20946;-85
2022/09/19 12:56:51;;;;;;;1.85;1.50;;;;;;;13.44;100.00;98111.31;2158235;82;21075;-86
2022/09/19 12:59:54;;;;;;;3.72;1.55;;;;;;;13.35;100.00;98107.65;2158306;82;21020;-85
2022/09/19 13:02:55;;;;;;;2.35;1.47;;;;;;;13.35;100.00;98112.91;2158065;82;21515;-87
2022/09/19 13:05:56;;;;;;;2.62;1.95;;;;;;;13.36;100.00;98110.57;2158127;82;21104;-89
2022/09/19 13:08:57;;;;;;;1.60;1.10;;;;;;;13.40;100.00;98116.20;2158060;82;21033;-86
2022/09/19 13:11:59;;;;;;;0.98;0.98;;;;;;;13.46;100.00;98120.63;2159156;82;21112;-87
2022/09/19 13:15:02;;;;;;;0.72;0.72;;;;;;;13.52;100.00;98123.70;2160791;82;21077;-87
2022/09/19 13:24:41;;;;;;;3.10;2.60;;;;;;;13.58;100.00;98124.17;2158236;82;21109;-85
2022/09/19 13:27:42;;;;;;;2.72;2.52;;;;;;;13.47;100.00;98120.11;2161140;82;21023;-86
2022/09/19 13:30:42;;;;;;;6.03;3.37;;;;;;;13.44;100.00;98127.09;2160570;82;20989;-85
2022/09/19 13:33:47;;;;;;;1.98;1.67;;;;;;;13.37;100.00;98127.95;2158347;82;22107;-86
2022/09/19 13:36:48;;;;;;;1.65;1.30;;;;;;;13.29;100.00;98147.11;2158225;82;21049;-87
2022/09/19 13:39:49;;;;;;;1.82;1.57;;;;;;;13.20;100.00;98153.12;2158144;82;21492;-86
2022/09/19 13:42:50;;;;;;;0.93;0.93;;;;;;;13.24;100.00;98156.13;2158279;82;21056;-86
2022/09/19 13:45:51;;;;;;;2.22;0.98;;;;;;;13.19;100.00;98150.67;2158359;82;21035;-85
2022/09/19 13:48:52;;;;;;;0.50;0.50;;;;;;;13.14;100.00;98155.23;2158523;82;21024;-86
2022/09/19 13:51:53;;;;;;;0.90;0.90;;;;;;;13.02;100.00;98155.59;2158437;82;21012;-86
2022/09/19 13:54:56;;;;;;;0.80;0.65;;;;;;;12.94;100.00;98162.39;2158294;82;21052;-89
2022/09/19 13:57:57;;;;;;;1.65;1.50;;;;;;;12.92;100.00;98169.69;2158326;82;21041;-86
2022/09/19 14:00:57;;;;;;;1.95;1.57;;;;;;;12.91;100.00;98170.19;2158470;82;21056;-86
2022/09/19 14:04:52;;;;;;;2.42;2.10;;;;;;;12.87;100.00;98166.35;2158237;82;21036;-85
2022/09/19 14:07:04;;;;;;;2.05;1.47;;;;;;;12.84;100.00;98179.11;2153808;82;21056;-86
2022/09/19 14:10:06;;;;;;;1.85;1.75;;;;;;;12.81;100.00;98175.89;2158393;82;21001;-86
2022/09/19 14:13:07;;;;;;;1.62;1.10;;;;;;;12.79;100.00;98179.20;2158709;82;21124;-87
2022/09/19 14:16:07;;;;;;;1.17;1.10;;;;;;;12.88;100.00;98175.84;2159401;82;20969;-85
2022/09/19 14:19:10;;;;;;;1.22;1.12;;;;;;;12.92;100.00;98181.51;2158856;82;21028;-87
2022/09/19 14:22:11;;;;;;;1.50;1.40;;;;;;;12.99;100.00;98178.36;2159323;82;20977;-86
2022/09/19 14:25:11;;;;;;;1.85;1.20;;;;;;;13.06;100.00;98185.18;2159322;82;21020;-86
2022/09/19 14:28:12;;;;;;;1.45;1.35;;;;;;;13.07;100.00;98178.94;2159856;82;21089;-85
2022/09/19 14:31:13;;;;;;;3.10;2.30;;;;;;;13.08;100.00;98182.37;2159860;82;20990;-84
2022/09/19 14:34:16;;;;;;;1.98;1.42;;;;;;;13.09;100.00;98174.27;2159225;82;21061;-87